Angel Albino Corzo International Airport
MMTG : now visible

Aeroporto :











RITROVATECI SU...

 
LOGIN :

Iscrizione | Disclaimer

   EN    FR    IT 

 









Sommario :    VFR   VFR Marginale   IFR   IFR Intensivo   IFR Molto Intensivo
Visibilità : 
Base nubi : 
>= 8 km
>= 3000ft
5 / 8 km
1000 / 3000 ft
1500m / 5 km
500 / 1000 ft
800 / 1500m
200 / 500 ft
< 800m
< 200 ft
Simboli :   Temporali  Nebbia  Neve Forte  Precipitazioni Forti  Vento > 20 kt






- Altitudine del aeroporto : 1499 ft


MMTG - Angel Albino Corzo International

METARs OBSOLETI :
  • 080342Z 19005KT 5SM TSRA BKN015CB BKN080 OVC300 23/23 A3005 RMK 60575 8/963

TAF TAF MMTG
Valido dal 08 a 06 ore il 09 a 06 ore UTC


080405Z 0806/0906 13005KT 6SM HZ SCT015 BKN080 BKN300
TEMPO 0806/0810 6SM TSRA BKN015CB
FM081000 02005KT 5SM HZ SCT015 BKN070
TEMPO 0811/0815 3SM BR -RA BKN010
FM081800 03010KT 6SM HZ SCT020 BKN100 BKN200
TEMPO 0822/0902 5SM TSRA BKN015CB
FIR MMFR / America del Nord



MetMap, La meteo Aeronautica in un colpo d'occhio ! - Copyright ORBIFLY Dicembre 2007 - Disclaimer

ORBIFLY MET'MAP TEAM :

Programmazione e sviluppo : Alexandra Zaïnal
Concezione : Baudouin d'Aumeries
Aiuto per la programmazione : Marc-Olivier Méhu
Supporto tecnico e logistico : Manuel Goepfert
Aiuto per la traduzione : Arnaldo La Scala

Contatto : metmap@orbifly.com




FONTI E CREDITI :

   NOAA       Earth
Advisory